createdAt,value
2023-04-25T00:04:04.074Z,17.30
2023-04-25T00:09:11.885Z,17.01
2023-04-25T00:14:15.208Z,15.60
2023-04-25T00:19:19.301Z,14.64
2023-04-25T00:24:21.941Z,14.49
2023-04-25T00:29:24.401Z,15.74
2023-04-25T00:34:27.035Z,16.14
2023-04-25T00:39:29.715Z,16.59
2023-04-25T00:44:35.712Z,17.11
2023-04-25T00:49:38.229Z,17.47
2023-04-25T00:54:41.337Z,17.69
2023-04-25T00:59:47.401Z,17.13
2023-04-25T01:04:49.941Z,15.45
2023-04-25T01:09:53.214Z,14.36
2023-04-25T01:14:56.101Z,14.38
2023-04-25T01:19:59.456Z,15.75
2023-04-25T01:25:02.550Z,16.50
2023-04-25T01:30:06.831Z,16.98
2023-04-25T01:35:12.018Z,17.31
2023-04-25T01:40:14.662Z,17.57
2023-04-25T01:45:18.366Z,17.20
2023-04-25T01:50:21.234Z,15.72
2023-04-25T01:55:24.102Z,14.79
2023-04-25T02:00:26.897Z,14.80
2023-04-25T02:05:30.007Z,16.07
2023-04-25T02:10:33.003Z,16.77
2023-04-25T02:15:35.823Z,17.19
2023-04-25T02:20:38.960Z,17.48
2023-04-25T02:25:41.849Z,17.62
2023-04-25T02:30:44.412Z,17.79
2023-04-25T02:35:46.925Z,17.92
2023-04-25T02:40:49.449Z,17.99
2023-04-25T02:45:52.038Z,18.25
2023-04-25T02:50:55.403Z,18.47
2023-04-25T02:55:59.346Z,17.79
2023-04-25T03:01:02.089Z,16.03
2023-04-25T03:06:04.768Z,14.80
2023-04-25T03:11:07.485Z,14.67
2023-04-25T03:16:09.988Z,16.04
2023-04-25T03:21:12.859Z,16.84
2023-04-25T03:26:15.630Z,17.30
2023-04-25T03:31:18.147Z,17.65
2023-04-25T03:36:20.911Z,17.91
2023-04-25T03:41:23.412Z,18.17
2023-04-25T03:46:26.094Z,18.35
2023-04-25T03:51:29.037Z,18.52
2023-04-25T03:56:31.570Z,18.58
2023-04-25T04:01:34.188Z,18.57
2023-04-25T04:06:37.326Z,18.55
2023-04-25T04:11:40.444Z,18.61
2023-04-25T04:16:43.245Z,18.64
2023-04-25T04:21:47.040Z,18.35
2023-04-25T04:26:49.594Z,16.62
2023-04-25T04:31:53.956Z,15.95
2023-04-25T04:36:56.989Z,17.42
2023-04-25T04:42:06.071Z,17.99
2023-04-25T04:47:08.596Z,18.16
2023-04-25T04:52:11.585Z,18.36
2023-04-25T04:57:14.141Z,17.87
2023-04-25T05:02:16.676Z,16.04
2023-04-25T05:07:20.131Z,15.56
2023-04-25T05:12:22.632Z,16.49
2023-04-25T05:17:25.424Z,16.80
2023-04-25T05:22:28.904Z,17.02
2023-04-25T05:27:31.592Z,17.30
2023-04-25T05:32:34.198Z,17.42
2023-04-25T05:37:37.180Z,17.49
2023-04-25T05:42:39.694Z,17.53
2023-04-25T05:47:42.335Z,17.58
2023-04-25T05:52:45.033Z,17.66
2023-04-25T05:57:47.756Z,17.75
2023-04-25T06:02:51.205Z,17.76
2023-04-25T06:07:53.956Z,17.74
2023-04-25T06:12:56.447Z,17.65
2023-04-25T06:17:59.579Z,17.61
2023-04-25T06:23:02.911Z,17.59
2023-04-25T06:28:05.532Z,17.82
2023-04-25T06:33:09.483Z,18.66
2023-04-25T06:38:12.272Z,17.82
2023-04-25T06:43:14.795Z,16.15
2023-04-25T06:48:18.690Z,16.11
2023-04-25T06:53:21.262Z,18.09
2023-04-25T06:58:23.866Z,18.93
2023-04-25T07:03:26.549Z,17.88
2023-04-25T07:08:30.624Z,15.86
2023-04-25T07:13:33.248Z,15.31
2023-04-25T07:18:35.814Z,16.33
2023-04-25T07:23:42.087Z,17.18
2023-04-25T07:28:44.772Z,17.66
2023-04-25T07:33:47.359Z,17.51
2023-04-25T07:38:50.156Z,17.71
2023-04-25T07:43:52.848Z,17.86
2023-04-25T07:48:55.641Z,16.61
2023-04-25T07:53:58.128Z,15.02
2023-04-25T07:59:01.560Z,14.67
2023-04-25T08:04:04.430Z,15.99
2023-04-25T08:09:07.472Z,16.65
2023-04-25T08:14:10.135Z,16.97
2023-04-25T08:19:12.895Z,17.02
2023-04-25T08:24:15.908Z,17.03
2023-04-25T08:29:18.639Z,17.09
2023-04-25T08:34:21.655Z,17.21
2023-04-25T08:39:24.241Z,16.14
2023-04-25T08:44:27.822Z,14.29
2023-04-25T08:49:33.008Z,13.95
2023-04-25T08:54:38.493Z,15.26
2023-04-25T08:59:46.630Z,16.03
2023-04-25T09:04:50.824Z,16.51
2023-04-25T09:09:53.473Z,16.78
2023-04-25T09:15:19.660Z,16.38
2023-04-25T09:20:22.941Z,14.56
2023-04-25T09:25:26.492Z,14.26
2023-04-25T09:30:35.859Z,15.51
2023-04-25T09:35:41.015Z,15.98
2023-04-25T09:40:46.373Z,16.31
2023-04-25T09:45:50.292Z,16.30
2023-04-25T09:51:11.563Z,14.65
2023-04-25T09:56:14.321Z,14.28
2023-04-25T10:01:17.830Z,15.56
2023-04-25T10:06:22.447Z,16.47
2023-04-25T10:11:27.190Z,17.03
2023-04-25T10:16:29.914Z,17.26
2023-04-25T10:21:34.682Z,15.91
2023-04-25T10:26:38.040Z,14.35
2023-04-25T10:31:49.475Z,14.26
2023-04-25T10:36:53.448Z,15.66
2023-04-25T10:42:00.149Z,16.37
2023-04-25T10:47:09.231Z,16.74
2023-04-25T10:52:26.475Z,16.43
2023-04-25T10:57:33.566Z,14.84
2023-04-25T11:02:54.104Z,14.28
2023-04-25T11:08:07.872Z,15.24
2023-04-25T11:13:11.024Z,15.87
2023-04-25T11:18:17.982Z,16.24
2023-04-25T11:23:20.698Z,15.83
2023-04-25T11:28:25.561Z,14.31
2023-04-25T11:33:28.748Z,14.04
2023-04-25T11:38:31.324Z,15.24
2023-04-25T11:43:34.223Z,15.86
2023-04-25T11:48:43.818Z,16.30
2023-04-25T11:53:46.788Z,16.35
2023-04-25T11:58:56.684Z,15.06
2023-04-25T12:04:10.970Z,14.00
2023-04-25T12:09:15.693Z,14.37
2023-04-25T12:14:35.203Z,16.32
2023-04-25T12:19:41.542Z,17.46
2023-04-25T12:24:46.165Z,16.68
2023-04-25T12:29:56.702Z,15.80
2023-04-25T12:34:59.352Z,15.31
2023-04-25T12:40:01.919Z,14.85
2023-04-25T12:45:04.739Z,14.94
2023-04-25T12:50:07.736Z,16.34
2023-04-25T12:55:10.596Z,16.67
2023-04-25T13:00:15.835Z,15.58
2023-04-25T13:05:18.406Z,14.78
2023-04-25T13:10:21.059Z,14.27
2023-04-25T13:15:24.080Z,14.09
2023-04-25T13:20:26.620Z,15.22
2023-04-25T13:25:29.218Z,16.24
2023-04-25T13:30:31.814Z,16.16
2023-04-25T13:35:35.845Z,14.90
2023-04-25T13:40:38.440Z,14.24
2023-04-25T13:45:41.637Z,14.07
2023-04-25T13:50:44.172Z,14.62
2023-04-25T13:55:47.742Z,16.03
2023-04-25T14:00:50.393Z,16.27
2023-04-25T14:05:52.927Z,15.27
2023-04-25T14:10:56.170Z,14.56
2023-04-25T14:15:58.769Z,13.96
2023-04-25T14:21:06.156Z,14.09
2023-04-25T14:26:12.948Z,15.46
2023-04-25T14:31:15.543Z,16.32
2023-04-25T14:36:18.127Z,16.27
2023-04-25T14:41:20.662Z,15.02
2023-04-25T14:46:25.908Z,14.04
2023-04-25T14:51:28.427Z,13.33
2023-04-25T14:56:31.437Z,12.84
2023-04-25T15:01:34.010Z,13.12
2023-04-25T15:06:37.233Z,14.57
2023-04-25T15:11:39.937Z,15.44
2023-04-25T15:16:43.626Z,15.99
2023-04-25T15:21:46.235Z,15.72
2023-04-25T15:26:48.853Z,14.36
2023-04-25T15:31:51.565Z,13.49
2023-04-25T15:36:54.155Z,13.33
2023-04-25T15:41:57.986Z,14.72
2023-04-25T15:47:01.586Z,15.59
2023-04-25T15:52:05.984Z,16.07
2023-04-25T15:57:12.968Z,16.31
2023-04-25T16:02:17.199Z,16.55
2023-04-25T16:07:19.905Z,16.05
2023-04-25T16:12:22.836Z,14.20
2023-04-25T16:17:26.251Z,13.76
2023-04-25T16:22:28.921Z,14.58
2023-04-25T16:27:33.263Z,15.08
2023-04-25T16:32:39.896Z,15.44
2023-04-25T16:37:42.504Z,14.73
2023-04-25T16:42:45.145Z,13.23
2023-04-25T16:47:47.978Z,12.30
2023-04-25T16:52:52.103Z,12.34
2023-04-25T16:57:55.055Z,13.70
2023-04-25T17:02:59.902Z,14.47
2023-04-25T17:08:03.118Z,14.08
2023-04-25T17:13:06.784Z,12.46
2023-04-25T17:18:09.521Z,12.11
2023-04-25T17:23:12.759Z,13.35
2023-04-25T17:28:16.942Z,14.13
2023-04-25T17:33:19.628Z,14.56
2023-04-25T17:38:22.291Z,14.83
2023-04-25T17:43:27.515Z,14.36
2023-04-25T17:48:31.646Z,12.64
2023-04-25T17:53:35.478Z,11.53
2023-04-25T17:58:38.092Z,10.89
2023-04-25T18:03:41.886Z,10.46
2023-04-25T18:08:49.877Z,10.46
2023-04-25T18:13:53.172Z,11.94
2023-04-25T18:19:05.061Z,12.90
2023-04-25T18:24:09.547Z,13.34
2023-04-25T18:29:29.044Z,13.77
2023-04-25T18:34:35.152Z,14.04
2023-04-25T18:39:37.725Z,14.22
2023-04-25T18:44:41.288Z,14.37
2023-04-25T18:49:43.859Z,13.42
2023-04-25T18:54:47.108Z,11.87
2023-04-25T18:59:49.630Z,10.91
2023-04-25T19:04:52.179Z,10.99
2023-04-25T19:09:55.017Z,12.59
2023-04-25T19:14:57.887Z,13.52
2023-04-25T19:20:01.256Z,13.70
2023-04-25T19:30:11.731Z,11.05
2023-04-25T19:35:14.438Z,10.67
2023-04-25T19:40:19.674Z,11.91
2023-04-25T19:45:22.567Z,12.70
2023-04-25T19:50:25.504Z,12.68
2023-04-25T19:55:28.537Z,11.10
2023-04-25T20:00:31.246Z,10.16
2023-04-25T20:05:33.823Z,11.31
2023-04-25T20:10:36.798Z,12.38
2023-04-25T20:15:39.386Z,12.88
2023-04-25T20:20:41.963Z,13.23
2023-04-25T20:25:44.513Z,13.62
2023-04-25T20:30:47.054Z,13.97
2023-04-25T20:35:49.713Z,14.17
2023-04-25T20:40:53.884Z,13.30
2023-04-25T20:45:57.288Z,11.74
2023-04-25T20:51:01.454Z,10.80
2023-04-25T20:56:06.320Z,10.68
2023-04-25T21:01:08.965Z,12.09
2023-04-25T21:06:11.498Z,12.87
2023-04-25T21:11:14.307Z,13.30
2023-04-25T21:16:16.886Z,13.67
2023-04-25T21:21:19.716Z,13.97
2023-04-25T21:26:22.268Z,13.45
2023-04-25T21:31:24.920Z,11.86
2023-04-25T21:36:27.878Z,10.82
2023-04-25T21:41:30.846Z,10.73
2023-04-25T21:46:34.356Z,12.07
2023-04-25T21:51:37.353Z,12.88
2023-04-25T21:56:39.850Z,13.27
2023-04-25T22:01:43.635Z,13.63
2023-04-25T22:06:46.505Z,13.91
2023-04-25T22:11:53.099Z,13.40
2023-04-25T22:16:56.025Z,11.73
2023-04-25T22:21:58.785Z,10.68
2023-04-25T22:27:02.426Z,10.64
2023-04-25T22:32:05.296Z,12.07
2023-04-25T22:37:07.852Z,12.90
2023-04-25T22:42:10.934Z,13.44
2023-04-25T22:47:13.412Z,13.93
2023-04-25T22:52:17.055Z,13.54
2023-04-25T22:57:21.394Z,11.73
2023-04-25T23:02:25.068Z,10.48
2023-04-25T23:07:29.085Z,10.37
2023-04-25T23:12:31.595Z,11.74
2023-04-25T23:17:34.117Z,12.49
2023-04-25T23:22:36.696Z,12.90
2023-04-25T23:27:39.221Z,13.11
2023-04-25T23:32:44.595Z,13.22
2023-04-25T23:37:49.124Z,13.29
2023-04-25T23:42:51.913Z,13.38
2023-04-25T23:47:54.443Z,13.50
2023-04-25T23:52:57.056Z,13.51
2023-04-25T23:57:59.565Z,13.67
